Sitka, AK

11:50 PM AKDT on June 22, 2017 (GMT -0800)
Sitka Rocky Gutierrez

Weather History for PASI - February, 2013

Change the Weather History Date:

Wednesday, February 20, 2013

  Actual Average Record
Temperature  
Mean Temperature 37 °F -  
Max Temperature 39 °F 41 °F 56 °F (1977)
Min Temperature 35 °F 31 °F 10 °F (1986)
Degree Days  
Heating Degree Days 28    
Moisture  
Dew Point 35 °F    
Average Humidity 88    
Maximum Humidity 100    
Minimum Humidity 70    
Precipitation  
Precipitation 0.46 in - - ()
Sea Level Pressure  
Sea Level Pressure 29.43 in    
Wind  
Wind Speed 13 mph (SE)    
Max Wind Speed 23 mph    
Max Gust Speed 31 mph    
Visibility 6 miles    
Events Rain , Snow    
Averages and records for this station are not official NWS values.
T = Trace of Precipitation, MM = Missing Value Source: NWS Daily Summary

Daily Weather History Graph

Daily Weather History Graph

Search for Another Location

Airport or City:

Trip Planner

Search our weather history database for the weather conditions in past years. The results will help you decide how hot, cold, wet, or windy it might be!

Date:

Astronomy

Feb. 20, 2013 Rise Set
Actual Time 7:16 AM AKST 5:14 PM AKST
Civil Twilight 6:37 AM AKST 5:54 PM AKST
Nautical Twilight 5:52 AM AKST 6:38 PM AKST
Astronomical Twilight 5:08 AM AKST 7:22 PM AKST
Moon 12:04 PM AKST (2/20) 4:20 AM AKST (2/20)
Length of Visible Light 11h 16m
Length of Day
9h 58m
Waxing Gibbous, 77% of the Moon is Illuminated
Feb 20
Waxing Gibbous
Feb 25
Full
Mar 4
Last Quarter
Mar 11
New
Mar 19
First Quarter

Hourly Weather History & Observations

Time (AKST) Temp. Windchill Dew Point Humidity Pressure Visibility Wind Dir Wind Speed Gust Speed Precip Events Conditions
12:38 AM 37.4 °F 28.9 °F 33.8 °F 87% 29.51 in 10.0 mi ESE 13.8 mph - 0.01 in Rain Light Rain
12:53 AM 37.9 °F 30.0 °F 34.0 °F 86% 29.49 in 10.0 mi ESE 12.7 mph - 0.01 in Rain Light Rain
1:53 AM 39.0 °F 30.3 °F 33.1 °F 79% 29.45 in 10.0 mi ESE 16.1 mph - 0.00 in Rain Light Rain
3:50 AM 39.2 °F 29.8 °F 33.8 °F 81% 29.44 in 10.0 mi ESE 18.4 mph - 0.00 in Rain Light Rain
3:53 AM 39.0 °F 31.0 °F 34.0 °F 82% 29.44 in 10.0 mi ESE 13.8 mph 23.0 mph 0.00 in Rain Light Rain
4:26 AM 37.4 °F 28.9 °F 35.6 °F 93% 29.46 in 6.0 mi South 13.8 mph 20.7 mph 0.05 in Rain Light Rain
4:53 AM 37.9 °F 31.5 °F 36.0 °F 93% 29.48 in 8.0 mi South 9.2 mph - 0.08 in Rain Light Rain
5:17 AM 35.6 °F 30.7 °F 35.6 °F 100% 29.48 in 6.0 mi East 5.8 mph - 0.04 in Snow Light Snow
5:46 AM 37.4 °F 30.8 °F 35.6 °F 93% 29.48 in 10.0 mi SE 9.2 mph - 0.08 in Rain Light Rain
5:53 AM 37.0 °F 30.4 °F 35.1 °F 93% 29.49 in 7.0 mi East 9.2 mph - 0.08 in Rain Light Rain
6:33 AM 37.4 °F 32.1 °F 35.6 °F 93% 29.48 in 7.0 mi East 6.9 mph - 0.00 in   Overcast
6:53 AM 37.0 °F 31.6 °F 34.0 °F 89% 29.48 in 7.0 mi East 6.9 mph - 0.00 in Rain Light Rain
7:03 AM 35.6 °F 28.6 °F 33.8 °F 93% 29.49 in 7.0 mi ESE 9.2 mph - 0.00 in   Overcast
7:19 AM 37.4 °F 31.4 °F 33.8 °F 87% 29.48 in 7.0 mi East 8.1 mph - 0.00 in   Overcast
7:53 AM 39.0 °F 32.8 °F 34.0 °F 82% 29.48 in 10.0 mi SE 9.2 mph - 0.00 in   Overcast
8:16 AM 39.2 °F 32.5 °F 35.6 °F 87% 29.48 in 8.0 mi SE 10.4 mph - N/A   Overcast
8:29 AM 39.2 °F 33.0 °F 35.6 °F 87% 29.47 in 6.0 mi SE 9.2 mph - 0.00 in Rain Light Rain
8:37 AM 39.2 °F 29.0 °F 35.6 °F 87% 29.48 in 6.0 mi SSE 21.9 mph 27.6 mph 0.00 in Rain Light Rain
8:49 AM 39.2 °F 30.5 °F 35.6 °F 87% 29.48 in 6.0 mi SSE 16.1 mph 21.9 mph 0.00 in   Overcast
8:53 AM 37.9 °F 28.9 °F 35.1 °F 89% 29.48 in 6.0 mi SSE 16.1 mph - 0.00 in   Overcast
9:31 AM 37.4 °F 33.8 °F 35.6 °F 93% 29.47 in 4.0 mi SE 4.6 mph - 0.01 in Rain Light Rain
9:53 AM 37.9 °F 30.9 °F 35.1 °F 89% 29.47 in 3.0 mi SSE 10.4 mph 18.4 mph 0.03 in Rain Rain
9:56 AM 37.4 °F 28.2 °F 35.6 °F 93% 29.48 in 1.5 mi SSW 16.1 mph 24.2 mph 0.01 in Rain Rain
10:06 AM 37.4 °F 26.4 °F 35.6 °F 93% 29.48 in 4.0 mi South 23.0 mph 31.1 mph 0.04 in Rain Light Rain
10:09 AM 37.4 °F 27.5 °F 35.6 °F 93% 29.48 in 4.0 mi South 18.4 mph 31.1 mph 0.04 in Rain Light Rain
10:13 AM 37.4 °F 28.5 °F 35.6 °F 93% 29.48 in 5.0 mi South 15.0 mph 31.1 mph 0.04 in Rain Light Rain
10:53 AM 37.9 °F 29.6 °F 36.0 °F 93% 29.49 in 6.0 mi South 13.8 mph - 0.08 in Rain Light Rain
11:17 AM 37.4 °F 29.3 °F 35.6 °F 93% 29.48 in 2.0 mi South 12.7 mph - 0.01 in Rain Rain
11:24 AM 37.4 °F 29.8 °F 35.6 °F 93% 29.48 in 5.0 mi South 11.5 mph - 0.02 in Rain Light Rain
11:53 AM 37.9 °F 28.2 °F 36.0 °F 93% 29.48 in 5.0 mi SW 18.4 mph 26.5 mph 0.04 in Rain Light Rain
12:24 PM 39.2 °F 32.0 °F 37.4 °F 93% 29.47 in 3.0 mi SSW 11.5 mph - 0.01 in Rain Light Rain
12:26 PM 39.2 °F 29.6 °F 37.4 °F 93% 29.47 in 1.5 mi SSW 19.6 mph 26.5 mph 0.03 in Rain Heavy Rain
12:36 PM 37.4 °F 27.8 °F 35.6 °F 93% 29.47 in 3.0 mi South 17.3 mph 25.3 mph 0.05 in Rain Light Rain
12:51 PM 37.4 °F 29.8 °F 35.6 °F 93% 29.47 in 5.0 mi South 11.5 mph 23.0 mph 0.06 in Rain Light Rain
12:53 PM 37.0 °F 29.3 °F 36.0 °F 96% 29.47 in 5.0 mi South 11.5 mph - 0.06 in Rain Light Rain
1:16 PM 37.4 °F 30.8 °F 35.6 °F 93% 29.45 in 7.0 mi SSE 9.2 mph - 0.00 in   Overcast
1:32 PM 39.2 °F 31.2 °F 35.6 °F 87% 29.44 in 5.0 mi SSE 13.8 mph - 0.00 in Rain Light Rain
1:53 PM 37.9 °F 28.2 °F 34.0 °F 86% 29.44 in 4.0 mi South 18.4 mph 27.6 mph 0.01 in Rain Light Rain
2:06 PM 37.4 °F 28.9 °F 33.8 °F 87% 29.43 in 6.0 mi ESE 13.8 mph 27.6 mph 0.01 in Rain Light Rain
2:17 PM 37.4 °F 28.5 °F 33.8 °F 87% 29.42 in 6.0 mi ESE 15.0 mph - 0.01 in   Overcast
2:49 PM 37.4 °F 28.5 °F 33.8 °F 87% 29.41 in 4.0 mi SSE 15.0 mph 21.9 mph 0.01 in Rain , Snow Light Rain
2:53 PM 37.0 °F 28.5 °F 33.1 °F 86% 29.42 in 2.5 mi SE 13.8 mph 21.9 mph 0.02 in Rain , Snow Light Rain
3:00 PM 37.4 °F 30.3 °F 33.8 °F 87% 29.41 in 3.0 mi SE 10.4 mph - N/A Rain Light Rain
3:11 PM 37.4 °F 29.8 °F 33.8 °F 87% 29.41 in 9.0 mi East 11.5 mph - 0.00 in Rain Light Rain
3:22 PM 37.4 °F 29.8 °F 33.8 °F 87% 29.39 in 6.0 mi East 11.5 mph - 0.00 in Rain Light Rain
3:44 PM 37.4 °F 29.3 °F 33.8 °F 87% 29.39 in 3.0 mi SSE 12.7 mph 20.7 mph 0.01 in Rain , Snow Light Snow
3:53 PM 37.4 °F 28.9 °F 33.8 °F 87% 29.38 in 5.0 mi SE 13.8 mph 17.3 mph N/A Rain , Snow Light Snow
4:22 PM 37.4 °F 29.8 °F 33.8 °F 87% 29.36 in 7.0 mi ESE 11.5 mph - 0.01 in Rain , Snow Light Snow
4:53 PM 37.0 °F 29.3 °F 34.0 °F 89% 29.34 in 8.0 mi ESE 11.5 mph - 0.02 in Rain , Snow Light Snow
5:53 PM 37.0 °F 28.9 °F 34.0 °F 89% 29.31 in 9.0 mi ESE 12.7 mph 20.7 mph 0.01 in Rain Light Rain
6:53 PM 37.0 °F 28.5 °F 34.0 °F 89% 29.28 in 10.0 mi SE 13.8 mph - 0.01 in Rain Light Rain
7:12 PM 37.4 °F 28.5 °F 33.8 °F 87% 29.27 in 10.0 mi ESE 15.0 mph - 0.01 in Rain Light Rain
7:53 PM 37.9 °F 28.9 °F 32.0 °F 79% 29.25 in 10.0 mi ESE 16.1 mph 25.3 mph 0.01 in   Overcast
8:53 PM 37.9 °F 29.2 °F 32.0 °F 79% 29.23 in 10.0 mi ESE 15.0 mph - N/A   Overcast
9:53 PM 39.0 °F 31.4 °F 32.0 °F 76% 29.22 in 10.0 mi ESE 12.7 mph - N/A   Overcast
10:53 PM 39.9 °F 31.1 °F 30.9 °F 70% 29.23 in 10.0 mi ESE 17.3 mph 25.3 mph 0.00 in Rain Light Rain
11:53 PM 39.9 °F 31.8 °F 30.9 °F 70% 29.24 in 10.0 mi ESE 15.0 mph 26.5 mph 0.00 in   Overcast